sensor_id;sensor_type;location;lat;lon;timestamp;P1;durP1;ratioP1;P2;durP2;ratioP2
66485;SDS011;53303;47.476;8.084;2022-11-02T00:01:11;3.40;;;1.38;;
66485;SDS011;53303;47.476;8.084;2022-11-02T00:03:37;4.53;;;1.50;;
66485;SDS011;53303;47.476;8.084;2022-11-02T00:06:04;4.47;;;1.92;;
66485;SDS011;53303;47.476;8.084;2022-11-02T00:08:30;3.78;;;1.40;;
66485;SDS011;53303;47.476;8.084;2022-11-02T00:10:58;4.45;;;1.80;;
66485;SDS011;53303;47.476;8.084;2022-11-02T00:13:23;4.35;;;1.40;;
66485;SDS011;53303;47.476;8.084;2022-11-02T00:15:48;4.38;;;1.60;;
66485;SDS011;53303;47.476;8.084;2022-11-02T00:18:14;4.10;;;1.45;;
66485;SDS011;53303;47.476;8.084;2022-11-02T00:20:40;4.38;;;1.40;;
66485;SDS011;53303;47.476;8.084;2022-11-02T00:23:07;4.25;;;1.50;;
66485;SDS011;53303;47.476;8.084;2022-11-02T00:25:36;5.95;;;1.80;;
66485;SDS011;53303;47.476;8.084;2022-11-02T00:28:08;4.10;;;1.50;;
66485;SDS011;53303;47.476;8.084;2022-11-02T00:30:34;4.38;;;1.50;;
66485;SDS011;53303;47.476;8.084;2022-11-02T00:32:59;3.60;;;1.20;;
66485;SDS011;53303;47.476;8.084;2022-11-02T00:35:27;4.47;;;1.50;;
66485;SDS011;53303;47.476;8.084;2022-11-02T00:37:55;4.07;;;1.42;;
66485;SDS011;53303;47.476;8.084;2022-11-02T00:40:20;4.30;;;1.45;;
66485;SDS011;53303;47.476;8.084;2022-11-02T00:42:45;2.95;;;1.27;;
66485;SDS011;53303;47.476;8.084;2022-11-02T00:45:11;3.83;;;1.40;;
66485;SDS011;53303;47.476;8.084;2022-11-02T00:47:37;4.60;;;1.48;;
66485;SDS011;53303;47.476;8.084;2022-11-02T00:50:03;3.67;;;1.33;;
66485;SDS011;53303;47.476;8.084;2022-11-02T00:52:29;4.03;;;1.25;;
66485;SDS011;53303;47.476;8.084;2022-11-02T00:54:55;3.17;;;1.25;;
66485;SDS011;53303;47.476;8.084;2022-11-02T00:57:21;4.68;;;1.55;;
66485;SDS011;53303;47.476;8.084;2022-11-02T00:59:46;3.97;;;1.50;;
66485;SDS011;53303;47.476;8.084;2022-11-02T01:02:12;4.57;;;1.40;;
66485;SDS011;53303;47.476;8.084;2022-11-02T01:04:37;5.72;;;1.40;;
66485;SDS011;53303;47.476;8.084;2022-11-02T01:07:02;4.00;;;1.25;;
66485;SDS011;53303;47.476;8.084;2022-11-02T01:09:28;3.25;;;1.30;;
66485;SDS011;53303;47.476;8.084;2022-11-02T01:11:54;4.03;;;1.50;;
66485;SDS011;53303;47.476;8.084;2022-11-02T01:14:19;2.38;;;1.15;;
66485;SDS011;53303;47.476;8.084;2022-11-02T01:16:47;3.17;;;1.42;;
66485;SDS011;53303;47.476;8.084;2022-11-02T01:19:13;3.60;;;1.40;;
66485;SDS011;53303;47.476;8.084;2022-11-02T01:21:38;4.18;;;1.40;;
66485;SDS011;53303;47.476;8.084;2022-11-02T01:24:04;3.75;;;1.10;;
66485;SDS011;53303;47.476;8.084;2022-11-02T01:26:30;3.20;;;1.35;;
66485;SDS011;53303;47.476;8.084;2022-11-02T01:28:56;2.50;;;1.10;;
66485;SDS011;53303;47.476;8.084;2022-11-02T01:31:23;4.22;;;1.40;;
66485;SDS011;53303;47.476;8.084;2022-11-02T01:33:49;3.88;;;1.35;;
66485;SDS011;53303;47.476;8.084;2022-11-02T01:36:17;5.07;;;1.20;;
66485;SDS011;53303;47.476;8.084;2022-11-02T01:38:47;5.50;;;1.40;;
66485;SDS011;53303;47.476;8.084;2022-11-02T01:41:13;4.38;;;1.30;;
66485;SDS011;53303;47.476;8.084;2022-11-02T01:43:40;4.95;;;1.40;;
66485;SDS011;53303;47.476;8.084;2022-11-02T01:51:21;3.15;;;1.30;;
66485;SDS011;53303;47.476;8.084;2022-11-02T01:53:51;3.53;;;1.10;;
66485;SDS011;53303;47.476;8.084;2022-11-02T01:56:22;3.33;;;1.17;;
66485;SDS011;53303;47.476;8.084;2022-11-02T01:59:06;4.20;;;1.23;;
66485;SDS011;53303;47.476;8.084;2022-11-02T02:01:34;4.18;;;1.35;;
66485;SDS011;53303;47.476;8.084;2022-11-02T02:03:59;2.88;;;1.23;;
66485;SDS011;53303;47.476;8.084;2022-11-02T02:06:26;6.03;;;1.90;;
66485;SDS011;53303;47.476;8.084;2022-11-02T02:08:52;2.75;;;1.00;;
66485;SDS011;53303;47.476;8.084;2022-11-02T02:11:31;3.83;;;1.20;;
66485;SDS011;53303;47.476;8.084;2022-11-02T02:14:08;4.10;;;1.50;;
66485;SDS011;53303;47.476;8.084;2022-11-02T02:19:34;4.03;;;1.17;;
66485;SDS011;53303;47.476;8.084;2022-11-02T02:28:04;4.70;;;1.27;;
66485;SDS011;53303;47.476;8.084;2022-11-02T02:30:45;3.78;;;1.33;;
66485;SDS011;53303;47.476;8.084;2022-11-02T02:33:45;4.60;;;1.27;;
66485;SDS011;53303;47.476;8.084;2022-11-02T02:36:20;3.80;;;1.27;;
66485;SDS011;53303;47.476;8.084;2022-11-02T02:44:00;2.45;;;1.10;;
66485;SDS011;53303;47.476;8.084;2022-11-02T02:49:06;3.47;;;1.30;;
66485;SDS011;53303;47.476;8.084;2022-11-02T02:51:37;3.38;;;1.13;;
66485;SDS011;53303;47.476;8.084;2022-11-02T02:54:06;3.78;;;1.20;;
66485;SDS011;53303;47.476;8.084;2022-11-02T02:56:40;3.08;;;1.20;;
66485;SDS011;53303;47.476;8.084;2022-11-02T02:59:43;4.03;;;1.17;;
66485;SDS011;53303;47.476;8.084;2022-11-02T03:02:10;4.47;;;1.30;;
66485;SDS011;53303;47.476;8.084;2022-11-02T03:04:58;5.38;;;1.40;;
66485;SDS011;53303;47.476;8.084;2022-11-02T03:07:32;3.78;;;1.30;;
66485;SDS011;53303;47.476;8.084;2022-11-02T03:17:54;3.13;;;1.10;;
66485;SDS011;53303;47.476;8.084;2022-11-02T03:23:24;4.72;;;1.20;;
66485;SDS011;53303;47.476;8.084;2022-11-02T03:31:40;4.40;;;1.20;;
66485;SDS011;53303;47.476;8.084;2022-11-02T03:42:35;3.28;;;1.30;;
66485;SDS011;53303;47.476;8.084;2022-11-02T03:45:11;2.45;;;1.13;;
66485;SDS011;53303;47.476;8.084;2022-11-02T03:47:42;3.53;;;1.20;;
66485;SDS011;53303;47.476;8.084;2022-11-02T03:50:11;3.17;;;1.13;;
66485;SDS011;53303;47.476;8.084;2022-11-02T03:52:43;3.30;;;1.20;;
66485;SDS011;53303;47.476;8.084;2022-11-02T03:55:18;2.47;;;0.90;;
66485;SDS011;53303;47.476;8.084;2022-11-02T03:57:49;3.70;;;1.27;;
66485;SDS011;53303;47.476;8.084;2022-11-02T04:00:17;3.65;;;1.48;;
66485;SDS011;53303;47.476;8.084;2022-11-02T04:02:47;3.95;;;1.33;;
66485;SDS011;53303;47.476;8.084;2022-11-02T04:05:16;3.35;;;1.02;;
66485;SDS011;53303;47.476;8.084;2022-11-02T04:07:43;2.42;;;0.98;;
66485;SDS011;53303;47.476;8.084;2022-11-02T04:10:30;3.00;;;1.00;;
66485;SDS011;53303;47.476;8.084;2022-11-02T04:12:56;3.95;;;1.10;;
66485;SDS011;53303;47.476;8.084;2022-11-02T04:15:40;2.83;;;1.10;;
66485;SDS011;53303;47.476;8.084;2022-11-02T04:18:05;3.58;;;1.30;;
66485;SDS011;53303;47.476;8.084;2022-11-02T04:20:54;3.97;;;1.10;;
66485;SDS011;53303;47.476;8.084;2022-11-02T04:23:22;3.03;;;1.13;;
66485;SDS011;53303;47.476;8.084;2022-11-02T04:26:05;3.90;;;1.10;;
66485;SDS011;53303;47.476;8.084;2022-11-02T04:28:31;2.65;;;1.10;;
66485;SDS011;53303;47.476;8.084;2022-11-02T04:30:56;2.50;;;0.98;;
66485;SDS011;53303;47.476;8.084;2022-11-02T04:33:23;5.65;;;1.10;;
66485;SDS011;53303;47.476;8.084;2022-11-02T04:36:02;2.80;;;1.50;;
66485;SDS011;53303;47.476;8.084;2022-11-02T04:38:29;3.47;;;1.15;;
66485;SDS011;53303;47.476;8.084;2022-11-02T04:41:05;3.60;;;1.25;;
66485;SDS011;53303;47.476;8.084;2022-11-02T04:43:59;2.05;;;0.90;;
66485;SDS011;53303;47.476;8.084;2022-11-02T04:46:26;3.08;;;1.00;;
66485;SDS011;53303;47.476;8.084;2022-11-02T04:48:56;3.33;;;1.00;;
66485;SDS011;53303;47.476;8.084;2022-11-02T04:51:22;3.80;;;1.35;;
66485;SDS011;53303;47.476;8.084;2022-11-02T04:53:50;2.42;;;1.00;;
66485;SDS011;53303;47.476;8.084;2022-11-02T04:56:16;3.15;;;1.30;;
66485;SDS011;53303;47.476;8.084;2022-11-02T04:58:51;4.70;;;1.00;;
66485;SDS011;53303;47.476;8.084;2022-11-02T05:01:18;4.82;;;1.10;;
66485;SDS011;53303;47.476;8.084;2022-11-02T05:03:51;8.35;;;1.50;;
66485;SDS011;53303;47.476;8.084;2022-11-02T05:06:18;7.75;;;1.50;;
66485;SDS011;53303;47.476;8.084;2022-11-02T05:08:45;8.85;;;1.48;;
66485;SDS011;53303;47.476;8.084;2022-11-02T05:11:10;6.13;;;1.48;;
66485;SDS011;53303;47.476;8.084;2022-11-02T05:13:37;6.30;;;1.80;;
66485;SDS011;53303;47.476;8.084;2022-11-02T05:16:03;7.03;;;1.73;;
66485;SDS011;53303;47.476;8.084;2022-11-02T05:18:28;4.50;;;1.38;;
66485;SDS011;53303;47.476;8.084;2022-11-02T05:20:55;5.40;;;1.40;;
66485;SDS011;53303;47.476;8.084;2022-11-02T05:23:23;6.40;;;1.52;;
66485;SDS011;53303;47.476;8.084;2022-11-02T05:25:52;3.72;;;1.05;;
66485;SDS011;53303;47.476;8.084;2022-11-02T05:28:19;3.28;;;1.33;;
66485;SDS011;53303;47.476;8.084;2022-11-02T05:30:44;5.53;;;1.48;;
66485;SDS011;53303;47.476;8.084;2022-11-02T05:33:10;6.07;;;1.45;;
66485;SDS011;53303;47.476;8.084;2022-11-02T05:35:35;6.10;;;1.33;;
66485;SDS011;53303;47.476;8.084;2022-11-02T05:38:03;4.10;;;1.27;;
66485;SDS011;53303;47.476;8.084;2022-11-02T05:40:33;4.72;;;1.40;;
66485;SDS011;53303;47.476;8.084;2022-11-02T05:43:01;6.25;;;1.60;;
66485;SDS011;53303;47.476;8.084;2022-11-02T05:45:28;4.80;;;1.50;;
66485;SDS011;53303;47.476;8.084;2022-11-02T05:47:54;6.57;;;1.30;;
66485;SDS011;53303;47.476;8.084;2022-11-02T05:50:19;5.97;;;1.52;;
66485;SDS011;53303;47.476;8.084;2022-11-02T05:52:45;7.75;;;1.48;;
66485;SDS011;53303;47.476;8.084;2022-11-02T05:55:11;5.95;;;1.52;;
66485;SDS011;53303;47.476;8.084;2022-11-02T05:57:38;5.15;;;1.40;;
66485;SDS011;53303;47.476;8.084;2022-11-02T06:00:04;6.18;;;1.50;;
66485;SDS011;53303;47.476;8.084;2022-11-02T06:02:34;7.35;;;1.58;;
66485;SDS011;53303;47.476;8.084;2022-11-02T06:05:00;6.22;;;1.40;;
66485;SDS011;53303;47.476;8.084;2022-11-02T06:07:25;7.20;;;1.88;;
66485;SDS011;53303;47.476;8.084;2022-11-02T06:09:51;5.90;;;1.65;;
66485;SDS011;53303;47.476;8.084;2022-11-02T06:12:16;5.95;;;1.50;;
66485;SDS011;53303;47.476;8.084;2022-11-02T06:14:42;6.32;;;1.70;;
66485;SDS011;53303;47.476;8.084;2022-11-02T06:17:07;5.15;;;2.00;;
66485;SDS011;53303;47.476;8.084;2022-11-02T06:19:32;5.85;;;1.80;;
66485;SDS011;53303;47.476;8.084;2022-11-02T06:21:58;6.15;;;1.70;;
66485;SDS011;53303;47.476;8.084;2022-11-02T06:24:23;6.10;;;1.70;;
66485;SDS011;53303;47.476;8.084;2022-11-02T06:26:48;7.10;;;2.08;;
66485;SDS011;53303;47.476;8.084;2022-11-02T06:29:14;8.63;;;1.95;;
66485;SDS011;53303;47.476;8.084;2022-11-02T06:31:39;6.57;;;2.03;;
66485;SDS011;53303;47.476;8.084;2022-11-02T06:34:05;10.73;;;2.20;;
66485;SDS011;53303;47.476;8.084;2022-11-02T06:36:30;6.20;;;1.70;;
66485;SDS011;53303;47.476;8.084;2022-11-02T06:38:58;8.07;;;2.42;;
66485;SDS011;53303;47.476;8.084;2022-11-02T06:41:23;6.95;;;1.85;;
66485;SDS011;53303;47.476;8.084;2022-11-02T06:43:49;7.53;;;2.30;;
66485;SDS011;53303;47.476;8.084;2022-11-02T06:46:14;10.15;;;3.05;;
66485;SDS011;53303;47.476;8.084;2022-11-02T06:48:39;7.40;;;2.50;;
66485;SDS011;53303;47.476;8.084;2022-11-02T06:51:05;7.15;;;2.53;;
66485;SDS011;53303;47.476;8.084;2022-11-02T06:53:31;8.10;;;2.30;;
66485;SDS011;53303;47.476;8.084;2022-11-02T06:55:59;7.75;;;2.38;;
66485;SDS011;53303;47.476;8.084;2022-11-02T06:58:27;10.40;;;2.72;;
66485;SDS011;53303;47.476;8.084;2022-11-02T07:00:57;7.22;;;2.47;;
66485;SDS011;53303;47.476;8.084;2022-11-02T07:03:23;7.82;;;2.50;;
66485;SDS011;53303;47.476;8.084;2022-11-02T07:05:49;8.45;;;2.53;;
66485;SDS011;53303;47.476;8.084;2022-11-02T07:08:16;8.40;;;3.00;;
66485;SDS011;53303;47.476;8.084;2022-11-02T07:10:44;7.88;;;2.30;;
66485;SDS011;53303;47.476;8.084;2022-11-02T07:13:10;9.07;;;2.53;;
66485;SDS011;53303;47.476;8.084;2022-11-02T07:15:38;8.25;;;2.00;;
66485;SDS011;53303;47.476;8.084;2022-11-02T07:18:04;9.43;;;2.47;;
66485;SDS011;53303;47.476;8.084;2022-11-02T07:20:30;8.75;;;2.53;;
66485;SDS011;53303;47.476;8.084;2022-11-02T07:22:57;7.57;;;2.10;;
66485;SDS011;53303;47.476;8.084;2022-11-02T07:25:24;7.40;;;2.00;;
66485;SDS011;53303;47.476;8.084;2022-11-02T07:27:51;7.80;;;2.40;;
66485;SDS011;53303;47.476;8.084;2022-11-02T07:30:17;6.70;;;2.28;;
66485;SDS011;53303;47.476;8.084;2022-11-02T07:32:43;6.20;;;2.17;;
66485;SDS011;53303;47.476;8.084;2022-11-02T07:35:10;6.55;;;2.03;;
66485;SDS011;53303;47.476;8.084;2022-11-02T07:37:37;5.90;;;2.00;;
66485;SDS011;53303;47.476;8.084;2022-11-02T07:40:03;6.22;;;2.00;;
66485;SDS011;53303;47.476;8.084;2022-11-02T07:42:30;5.75;;;1.88;;
66485;SDS011;53303;47.476;8.084;2022-11-02T07:44:55;9.52;;;2.08;;
66485;SDS011;53303;47.476;8.084;2022-11-02T07:47:21;6.35;;;2.03;;
66485;SDS011;53303;47.476;8.084;2022-11-02T07:49:46;6.97;;;2.00;;
66485;SDS011;53303;47.476;8.084;2022-11-02T07:52:14;8.85;;;2.35;;
66485;SDS011;53303;47.476;8.084;2022-11-02T07:54:40;5.68;;;1.75;;
66485;SDS011;53303;47.476;8.084;2022-11-02T07:57:05;5.38;;;1.80;;
66485;SDS011;53303;47.476;8.084;2022-11-02T07:59:31;5.22;;;1.90;;
66485;SDS011;53303;47.476;8.084;2022-11-02T08:02:00;7.93;;;1.80;;
66485;SDS011;53303;47.476;8.084;2022-11-02T08:04:28;6.80;;;1.70;;
66485;SDS011;53303;47.476;8.084;2022-11-02T08:06:54;8.85;;;2.20;;
66485;SDS011;53303;47.476;8.084;2022-11-02T08:09:24;5.57;;;1.77;;
66485;SDS011;53303;47.476;8.084;2022-11-02T08:11:49;6.15;;;1.60;;
66485;SDS011;53303;47.476;8.084;2022-11-02T08:14:15;7.45;;;1.70;;
66485;SDS011;53303;47.476;8.084;2022-11-02T08:16:42;5.30;;;1.60;;
66485;SDS011;53303;47.476;8.084;2022-11-02T08:19:14;6.53;;;1.58;;
66485;SDS011;53303;47.476;8.084;2022-11-02T08:21:39;4.00;;;1.45;;
66485;SDS011;53303;47.476;8.084;2022-11-02T08:24:07;4.93;;;1.50;;
66485;SDS011;53303;47.476;8.084;2022-11-02T08:26:33;4.55;;;1.38;;
66485;SDS011;53303;47.476;8.084;2022-11-02T08:28:58;4.95;;;1.60;;
66485;SDS011;53303;47.476;8.084;2022-11-02T08:31:23;5.25;;;1.60;;
66485;SDS011;53303;47.476;8.084;2022-11-02T08:33:49;6.00;;;1.70;;
66485;SDS011;53303;47.476;8.084;2022-11-02T08:36:14;5.53;;;1.50;;
66485;SDS011;53303;47.476;8.084;2022-11-02T08:38:39;6.53;;;1.67;;
66485;SDS011;53303;47.476;8.084;2022-11-02T08:41:06;4.80;;;1.40;;
66485;SDS011;53303;47.476;8.084;2022-11-02T08:43:34;5.07;;;1.58;;
66485;SDS011;53303;47.476;8.084;2022-11-02T08:45:59;7.78;;;1.50;;
66485;SDS011;53303;47.476;8.084;2022-11-02T08:48:25;5.43;;;1.63;;
66485;SDS011;53303;47.476;8.084;2022-11-02T08:50:51;6.65;;;1.60;;
66485;SDS011;53303;47.476;8.084;2022-11-02T08:53:16;4.70;;;1.20;;
66485;SDS011;53303;47.476;8.084;2022-11-02T08:55:42;5.57;;;1.42;;
66485;SDS011;53303;47.476;8.084;2022-11-02T08:58:07;4.20;;;1.42;;
66485;SDS011;53303;47.476;8.084;2022-11-02T09:00:33;7.35;;;1.60;;
66485;SDS011;53303;47.476;8.084;2022-11-02T09:03:06;5.45;;;1.60;;
66485;SDS011;53303;47.476;8.084;2022-11-02T09:05:43;4.20;;;1.30;;
66485;SDS011;53303;47.476;8.084;2022-11-02T09:08:11;4.35;;;1.20;;
66485;SDS011;53303;47.476;8.084;2022-11-02T09:10:40;4.82;;;1.30;;
66485;SDS011;53303;47.476;8.084;2022-11-02T09:13:07;5.05;;;1.40;;
66485;SDS011;53303;47.476;8.084;2022-11-02T09:15:37;5.07;;;1.45;;
66485;SDS011;53303;47.476;8.084;2022-11-02T09:18:04;4.47;;;1.35;;
66485;SDS011;53303;47.476;8.084;2022-11-02T09:20:30;4.68;;;1.38;;
66485;SDS011;53303;47.476;8.084;2022-11-02T09:23:01;6.82;;;1.83;;
66485;SDS011;53303;47.476;8.084;2022-11-02T09:25:27;5.18;;;1.23;;
66485;SDS011;53303;47.476;8.084;2022-11-02T09:27:53;5.30;;;1.38;;
66485;SDS011;53303;47.476;8.084;2022-11-02T09:30:20;4.78;;;1.38;;
66485;SDS011;53303;47.476;8.084;2022-11-02T09:32:52;7.97;;;1.63;;
66485;SDS011;53303;47.476;8.084;2022-11-02T09:35:18;5.82;;;1.40;;
66485;SDS011;53303;47.476;8.084;2022-11-02T09:37:47;6.18;;;1.50;;
66485;SDS011;53303;47.476;8.084;2022-11-02T09:40:12;5.22;;;1.42;;
66485;SDS011;53303;47.476;8.084;2022-11-02T09:42:43;6.50;;;1.42;;
66485;SDS011;53303;47.476;8.084;2022-11-02T09:45:20;6.47;;;1.90;;
66485;SDS011;53303;47.476;8.084;2022-11-02T09:47:51;6.18;;;1.58;;
66485;SDS011;53303;47.476;8.084;2022-11-02T09:50:23;5.53;;;1.40;;
66485;SDS011;53303;47.476;8.084;2022-11-02T09:52:59;4.75;;;1.52;;
66485;SDS011;53303;47.476;8.084;2022-11-02T09:55:32;6.75;;;1.50;;
66485;SDS011;53303;47.476;8.084;2022-11-02T09:58:05;6.55;;;1.30;;
66485;SDS011;53303;47.476;8.084;2022-11-02T10:00:37;5.13;;;1.77;;
66485;SDS011;53303;47.476;8.084;2022-11-02T10:05:40;5.78;;;1.35;;
66485;SDS011;53303;47.476;8.084;2022-11-02T10:08:22;5.07;;;1.20;;
66485;SDS011;53303;47.476;8.084;2022-11-02T10:16:37;6.82;;;1.63;;
66485;SDS011;53303;47.476;8.084;2022-11-02T10:19:11;5.68;;;1.42;;
66485;SDS011;53303;47.476;8.084;2022-11-02T10:24:20;4.70;;;1.40;;
66485;SDS011;53303;47.476;8.084;2022-11-02T10:27:11;5.63;;;1.55;;
66485;SDS011;53303;47.476;8.084;2022-11-02T10:29:44;7.03;;;1.65;;
66485;SDS011;53303;47.476;8.084;2022-11-02T10:32:16;4.65;;;1.60;;
66485;SDS011;53303;47.476;8.084;2022-11-02T10:34:42;4.80;;;1.40;;
66485;SDS011;53303;47.476;8.084;2022-11-02T10:45:30;4.60;;;1.38;;
66485;SDS011;53303;47.476;8.084;2022-11-02T10:51:06;7.47;;;1.42;;
66485;SDS011;53303;47.476;8.084;2022-11-02T10:53:40;4.72;;;1.40;;
66485;SDS011;53303;47.476;8.084;2022-11-02T10:56:18;4.68;;;1.27;;
66485;SDS011;53303;47.476;8.084;2022-11-02T11:01:35;6.35;;;1.50;;
66485;SDS011;53303;47.476;8.084;2022-11-02T11:09:14;4.00;;;1.20;;
66485;SDS011;53303;47.476;8.084;2022-11-02T11:15:04;6.25;;;1.23;;
66485;SDS011;53303;47.476;8.084;2022-11-02T11:17:37;4.05;;;1.00;;
66485;SDS011;53303;47.476;8.084;2022-11-02T11:20:23;4.43;;;1.25;;
66485;SDS011;53303;47.476;8.084;2022-11-02T11:25:33;3.60;;;1.17;;
66485;SDS011;53303;47.476;8.084;2022-11-02T11:28:12;4.90;;;1.30;;
66485;SDS011;53303;47.476;8.084;2022-11-02T11:31:00;5.20;;;1.20;;
66485;SDS011;53303;47.476;8.084;2022-11-02T11:36:08;6.07;;;0.98;;
66485;SDS011;53303;47.476;8.084;2022-11-02T11:38:35;5.78;;;1.38;;
66485;SDS011;53303;47.476;8.084;2022-11-02T11:41:01;5.55;;;1.30;;
66485;SDS011;53303;47.476;8.084;2022-11-02T11:43:29;4.97;;;1.33;;
66485;SDS011;53303;47.476;8.084;2022-11-02T11:46:02;5.13;;;1.33;;
66485;SDS011;53303;47.476;8.084;2022-11-02T11:48:35;4.40;;;1.30;;
66485;SDS011;53303;47.476;8.084;2022-11-02T11:51:16;5.00;;;1.40;;
66485;SDS011;53303;47.476;8.084;2022-11-02T11:56:53;6.18;;;1.33;;
66485;SDS011;53303;47.476;8.084;2022-11-02T11:59:29;5.50;;;1.33;;
66485;SDS011;53303;47.476;8.084;2022-11-02T12:05:00;4.93;;;1.35;;
66485;SDS011;53303;47.476;8.084;2022-11-02T12:13:25;3.72;;;1.20;;
66485;SDS011;53303;47.476;8.084;2022-11-02T12:18:43;4.03;;;1.30;;
66485;SDS011;53303;47.476;8.084;2022-11-02T12:21:19;4.22;;;1.17;;
66485;SDS011;53303;47.476;8.084;2022-11-02T12:23:56;4.15;;;1.15;;
66485;SDS011;53303;47.476;8.084;2022-11-02T12:35:23;5.35;;;1.38;;
66485;SDS011;53303;47.476;8.084;2022-11-02T12:51:46;6.40;;;1.50;;
66485;SDS011;53303;47.476;8.084;2022-11-02T12:54:25;6.97;;;1.20;;
66485;SDS011;53303;47.476;8.084;2022-11-02T12:57:02;4.40;;;1.20;;
66485;SDS011;53303;47.476;8.084;2022-11-02T12:59:29;6.00;;;1.20;;
66485;SDS011;53303;47.476;8.084;2022-11-02T13:02:20;5.57;;;1.42;;
66485;SDS011;53303;47.476;8.084;2022-11-02T13:05:02;6.60;;;1.25;;
66485;SDS011;53303;47.476;8.084;2022-11-02T13:07:58;4.25;;;1.10;;
66485;SDS011;53303;47.476;8.084;2022-11-02T13:10:47;4.03;;;1.10;;
66485;SDS011;53303;47.476;8.084;2022-11-02T13:13:18;5.07;;;1.00;;
66485;SDS011;53303;47.476;8.084;2022-11-02T13:15:52;5.75;;;1.30;;
66485;SDS011;53303;47.476;8.084;2022-11-02T13:18:23;3.78;;;1.13;;
66485;SDS011;53303;47.476;8.084;2022-11-02T13:20:56;4.32;;;1.20;;
66485;SDS011;53303;47.476;8.084;2022-11-02T13:23:27;7.50;;;1.30;;
66485;SDS011;53303;47.476;8.084;2022-11-02T13:26:26;4.32;;;1.02;;
66485;SDS011;53303;47.476;8.084;2022-11-02T13:31:44;4.85;;;1.20;;
66485;SDS011;53303;47.476;8.084;2022-11-02T13:34:26;4.30;;;1.20;;
66485;SDS011;53303;47.476;8.084;2022-11-02T13:37:03;4.15;;;1.10;;
66485;SDS011;53303;47.476;8.084;2022-11-02T13:39:34;3.63;;;1.08;;
66485;SDS011;53303;47.476;8.084;2022-11-02T13:42:23;4.93;;;1.33;;
66485;SDS011;53303;47.476;8.084;2022-11-02T13:50:37;5.32;;;1.30;;
66485;SDS011;53303;47.476;8.084;2022-11-02T13:53:15;4.80;;;1.17;;
66485;SDS011;53303;47.476;8.084;2022-11-02T13:56:00;4.05;;;1.15;;
66485;SDS011;53303;47.476;8.084;2022-11-02T13:58:35;5.82;;;1.10;;
66485;SDS011;53303;47.476;8.084;2022-11-02T14:01:04;3.25;;;1.10;;
66485;SDS011;53303;47.476;8.084;2022-11-02T14:03:46;3.45;;;1.20;;
66485;SDS011;53303;47.476;8.084;2022-11-02T14:06:29;4.00;;;1.20;;
66485;SDS011;53303;47.476;8.084;2022-11-02T14:09:04;4.15;;;1.30;;
66485;SDS011;53303;47.476;8.084;2022-11-02T14:14:05;4.30;;;1.20;;
66485;SDS011;53303;47.476;8.084;2022-11-02T14:22:25;5.43;;;1.60;;
66485;SDS011;53303;47.476;8.084;2022-11-02T14:26:57;4.88;;;1.30;;
66485;SDS011;53303;47.476;8.084;2022-11-02T14:37:46;5.55;;;1.65;;
66485;SDS011;53303;47.476;8.084;2022-11-02T14:40:22;4.85;;;1.30;;
66485;SDS011;53303;47.476;8.084;2022-11-02T14:46:09;4.95;;;1.30;;
66485;SDS011;53303;47.476;8.084;2022-11-02T14:48:57;6.45;;;1.40;;
66485;SDS011;53303;47.476;8.084;2022-11-02T14:51:26;7.88;;;1.38;;
66485;SDS011;53303;47.476;8.084;2022-11-02T14:53:56;6.80;;;1.20;;
66485;SDS011;53303;47.476;8.084;2022-11-02T14:59:38;9.07;;;1.98;;
66485;SDS011;53303;47.476;8.084;2022-11-02T15:04:49;5.90;;;1.45;;
66485;SDS011;53303;47.476;8.084;2022-11-02T15:07:37;6.68;;;1.40;;
66485;SDS011;53303;47.476;8.084;2022-11-02T15:12:42;8.80;;;1.40;;
66485;SDS011;53303;47.476;8.084;2022-11-02T15:15:30;3.80;;;1.30;;
66485;SDS011;53303;47.476;8.084;2022-11-02T15:20:45;4.63;;;1.42;;
66485;SDS011;53303;47.476;8.084;2022-11-02T15:23:21;6.63;;;1.52;;
66485;SDS011;53303;47.476;8.084;2022-11-02T15:25:50;4.57;;;1.25;;
66485;SDS011;53303;47.476;8.084;2022-11-02T15:28:22;5.60;;;1.42;;
66485;SDS011;53303;47.476;8.084;2022-11-02T15:30:53;8.98;;;1.55;;
66485;SDS011;53303;47.476;8.084;2022-11-02T15:35:59;7.13;;;1.70;;
66485;SDS011;53303;47.476;8.084;2022-11-02T15:38:27;5.07;;;1.27;;
66485;SDS011;53303;47.476;8.084;2022-11-02T15:41:03;7.15;;;1.75;;
66485;SDS011;53303;47.476;8.084;2022-11-02T15:46:30;4.57;;;1.40;;
66485;SDS011;53303;47.476;8.084;2022-11-02T15:49:07;5.82;;;1.50;;
66485;SDS011;53303;47.476;8.084;2022-11-02T16:02:34;5.05;;;1.40;;
66485;SDS011;53303;47.476;8.084;2022-11-02T16:05:02;6.18;;;1.50;;
66485;SDS011;53303;47.476;8.084;2022-11-02T16:07:32;6.88;;;1.88;;
66485;SDS011;53303;47.476;8.084;2022-11-02T16:10:09;5.75;;;1.70;;
66485;SDS011;53303;47.476;8.084;2022-11-02T16:12:37;5.55;;;1.42;;
66485;SDS011;53303;47.476;8.084;2022-11-02T16:17:33;9.50;;;2.00;;
66485;SDS011;53303;47.476;8.084;2022-11-02T16:20:09;6.45;;;1.80;;
66485;SDS011;53303;47.476;8.084;2022-11-02T16:22:39;6.75;;;1.90;;
66485;SDS011;53303;47.476;8.084;2022-11-02T16:25:18;7.68;;;1.83;;
66485;SDS011;53303;47.476;8.084;2022-11-02T16:27:51;7.00;;;1.80;;
66485;SDS011;53303;47.476;8.084;2022-11-02T16:30:21;6.55;;;1.70;;
66485;SDS011;53303;47.476;8.084;2022-11-02T16:32:49;9.50;;;2.35;;
66485;SDS011;53303;47.476;8.084;2022-11-02T16:35:25;9.48;;;2.05;;
66485;SDS011;53303;47.476;8.084;2022-11-02T16:37:51;7.80;;;2.00;;
66485;SDS011;53303;47.476;8.084;2022-11-02T16:40:17;4.68;;;1.70;;
66485;SDS011;53303;47.476;8.084;2022-11-02T16:42:50;5.75;;;1.80;;
66485;SDS011;53303;47.476;8.084;2022-11-02T16:47:54;10.45;;;3.17;;
66485;SDS011;53303;47.476;8.084;2022-11-02T16:50:23;13.98;;;3.85;;
66485;SDS011;53303;47.476;8.084;2022-11-02T16:52:59;8.18;;;2.70;;
66485;SDS011;53303;47.476;8.084;2022-11-02T16:55:36;6.97;;;2.42;;
66485;SDS011;53303;47.476;8.084;2022-11-02T16:58:12;8.30;;;2.92;;
66485;SDS011;53303;47.476;8.084;2022-11-02T17:00:52;7.05;;;2.83;;
66485;SDS011;53303;47.476;8.084;2022-11-02T17:03:22;7.18;;;2.55;;
66485;SDS011;53303;47.476;8.084;2022-11-02T17:05:53;9.68;;;2.70;;
66485;SDS011;53303;47.476;8.084;2022-11-02T17:08:29;7.20;;;2.60;;
66485;SDS011;53303;47.476;8.084;2022-11-02T17:11:00;6.53;;;2.88;;
66485;SDS011;53303;47.476;8.084;2022-11-02T17:13:33;6.60;;;2.55;;
66485;SDS011;53303;47.476;8.084;2022-11-02T17:16:04;7.13;;;2.75;;
66485;SDS011;53303;47.476;8.084;2022-11-02T17:18:37;7.40;;;2.58;;
66485;SDS011;53303;47.476;8.084;2022-11-02T17:23:43;8.18;;;3.00;;
66485;SDS011;53303;47.476;8.084;2022-11-02T17:28:46;7.15;;;2.55;;
66485;SDS011;53303;47.476;8.084;2022-11-02T17:31:18;10.00;;;3.15;;
66485;SDS011;53303;47.476;8.084;2022-11-02T17:33:46;6.93;;;3.10;;
66485;SDS011;53303;47.476;8.084;2022-11-02T17:36:12;6.32;;;2.50;;
66485;SDS011;53303;47.476;8.084;2022-11-02T17:38:39;6.45;;;2.83;;
66485;SDS011;53303;47.476;8.084;2022-11-02T17:41:04;6.90;;;2.75;;
66485;SDS011;53303;47.476;8.084;2022-11-02T17:43:49;5.93;;;2.15;;
66485;SDS011;53303;47.476;8.084;2022-11-02T17:46:15;5.70;;;2.30;;
66485;SDS011;53303;47.476;8.084;2022-11-02T17:48:40;6.97;;;2.42;;
66485;SDS011;53303;47.476;8.084;2022-11-02T17:51:08;5.82;;;2.30;;
66485;SDS011;53303;47.476;8.084;2022-11-02T17:53:36;5.40;;;2.42;;
66485;SDS011;53303;47.476;8.084;2022-11-02T17:56:04;5.82;;;2.40;;
66485;SDS011;53303;47.476;8.084;2022-11-02T17:58:30;6.70;;;2.20;;
66485;SDS011;53303;47.476;8.084;2022-11-02T18:00:55;5.38;;;2.13;;
66485;SDS011;53303;47.476;8.084;2022-11-02T18:03:23;9.18;;;2.13;;
66485;SDS011;53303;47.476;8.084;2022-11-02T18:05:50;42.20;;;5.00;;
66485;SDS011;53303;47.476;8.084;2022-11-02T18:08:19;41.53;;;4.40;;
66485;SDS011;53303;47.476;8.084;2022-11-02T18:10:47;54.65;;;5.32;;
66485;SDS011;53303;47.476;8.084;2022-11-02T18:13:18;87.47;;;7.32;;
66485;SDS011;53303;47.476;8.084;2022-11-02T18:15:45;152.25;;;11.63;;
66485;SDS011;53303;47.476;8.084;2022-11-02T18:18:11;97.32;;;8.77;;